sensor_id;sensor_type;location;lat;lon;timestamp;P1;durP1;ratioP1;P2;durP2;ratioP2
5682;SDS011;2864;49.220;8.654;2023-10-09T00:01:00;19.83;;;5.93;;
5682;SDS011;2864;49.220;8.654;2023-10-09T00:03:37;13.37;;;5.77;;
5682;SDS011;2864;49.220;8.654;2023-10-09T00:06:03;13.93;;;5.30;;
5682;SDS011;2864;49.220;8.654;2023-10-09T00:08:30;13.37;;;5.23;;
5682;SDS011;2864;49.220;8.654;2023-10-09T00:10:56;20.60;;;6.57;;
5682;SDS011;2864;49.220;8.654;2023-10-09T00:13:58;15.20;;;5.60;;
5682;SDS011;2864;49.220;8.654;2023-10-09T00:16:24;15.80;;;5.63;;
5682;SDS011;2864;49.220;8.654;2023-10-09T00:19:04;15.87;;;6.17;;
5682;SDS011;2864;49.220;8.654;2023-10-09T00:21:45;16.03;;;5.77;;
5682;SDS011;2864;49.220;8.654;2023-10-09T00:24:12;15.10;;;5.37;;
5682;SDS011;2864;49.220;8.654;2023-10-09T00:26:39;15.53;;;5.63;;
5682;SDS011;2864;49.220;8.654;2023-10-09T00:29:10;13.73;;;4.53;;
5682;SDS011;2864;49.220;8.654;2023-10-09T00:31:49;17.20;;;5.53;;
5682;SDS011;2864;49.220;8.654;2023-10-09T00:34:28;12.60;;;5.03;;
5682;SDS011;2864;49.220;8.654;2023-10-09T00:36:54;16.03;;;5.50;;
5682;SDS011;2864;49.220;8.654;2023-10-09T00:39:22;13.90;;;5.80;;
5682;SDS011;2864;49.220;8.654;2023-10-09T00:42:17;15.30;;;5.17;;
5682;SDS011;2864;49.220;8.654;2023-10-09T00:44:52;16.30;;;5.20;;
5682;SDS011;2864;49.220;8.654;2023-10-09T00:47:19;14.20;;;5.13;;
5682;SDS011;2864;49.220;8.654;2023-10-09T00:49:52;12.07;;;5.40;;
5682;SDS011;2864;49.220;8.654;2023-10-09T00:52:29;14.57;;;5.30;;
5682;SDS011;2864;49.220;8.654;2023-10-09T00:54:58;16.03;;;5.60;;
5682;SDS011;2864;49.220;8.654;2023-10-09T00:57:45;19.77;;;5.90;;
5682;SDS011;2864;49.220;8.654;2023-10-09T01:00:38;16.20;;;6.00;;
5682;SDS011;2864;49.220;8.654;2023-10-09T01:03:11;23.10;;;6.00;;
5682;SDS011;2864;49.220;8.654;2023-10-09T01:05:42;19.70;;;5.70;;
5682;SDS011;2864;49.220;8.654;2023-10-09T01:08:16;15.77;;;5.37;;
5682;SDS011;2864;49.220;8.654;2023-10-09T01:11:04;18.67;;;6.40;;
5682;SDS011;2864;49.220;8.654;2023-10-09T01:13:54;17.03;;;5.23;;
5682;SDS011;2864;49.220;8.654;2023-10-09T01:16:36;12.50;;;4.93;;
5682;SDS011;2864;49.220;8.654;2023-10-09T01:19:02;17.03;;;5.47;;
5682;SDS011;2864;49.220;8.654;2023-10-09T01:21:38;16.33;;;5.93;;
5682;SDS011;2864;49.220;8.654;2023-10-09T01:24:05;14.97;;;5.20;;
5682;SDS011;2864;49.220;8.654;2023-10-09T01:26:35;17.33;;;5.43;;
5682;SDS011;2864;49.220;8.654;2023-10-09T01:29:07;14.37;;;5.57;;
5682;SDS011;2864;49.220;8.654;2023-10-09T01:32:00;13.13;;;5.37;;
5682;SDS011;2864;49.220;8.654;2023-10-09T01:34:29;15.23;;;5.47;;
5682;SDS011;2864;49.220;8.654;2023-10-09T01:37:01;16.37;;;6.40;;
5682;SDS011;2864;49.220;8.654;2023-10-09T01:39:30;22.17;;;6.00;;
5682;SDS011;2864;49.220;8.654;2023-10-09T01:41:56;21.17;;;5.30;;
5682;SDS011;2864;49.220;8.654;2023-10-09T01:44:26;21.07;;;5.80;;
5682;SDS011;2864;49.220;8.654;2023-10-09T01:46:55;17.13;;;5.67;;
5682;SDS011;2864;49.220;8.654;2023-10-09T01:49:22;17.60;;;5.43;;
5682;SDS011;2864;49.220;8.654;2023-10-09T01:51:55;17.00;;;5.60;;
5682;SDS011;2864;49.220;8.654;2023-10-09T01:54:24;14.97;;;5.63;;
5682;SDS011;2864;49.220;8.654;2023-10-09T01:57:01;17.77;;;5.90;;
5682;SDS011;2864;49.220;8.654;2023-10-09T01:59:31;22.63;;;5.37;;
5682;SDS011;2864;49.220;8.654;2023-10-09T02:01:57;13.33;;;5.70;;
5682;SDS011;2864;49.220;8.654;2023-10-09T02:04:25;21.77;;;5.97;;
5682;SDS011;2864;49.220;8.654;2023-10-09T02:06:51;20.17;;;5.27;;
5682;SDS011;2864;49.220;8.654;2023-10-09T02:09:18;20.10;;;6.53;;
5682;SDS011;2864;49.220;8.654;2023-10-09T02:11:51;17.27;;;6.37;;
5682;SDS011;2864;49.220;8.654;2023-10-09T02:14:16;16.80;;;5.77;;
5682;SDS011;2864;49.220;8.654;2023-10-09T02:16:46;17.53;;;5.57;;
5682;SDS011;2864;49.220;8.654;2023-10-09T02:19:28;17.00;;;5.83;;
5682;SDS011;2864;49.220;8.654;2023-10-09T02:21:58;20.43;;;5.47;;
5682;SDS011;2864;49.220;8.654;2023-10-09T02:24:26;18.30;;;5.83;;
5682;SDS011;2864;49.220;8.654;2023-10-09T02:26:53;16.33;;;5.73;;
5682;SDS011;2864;49.220;8.654;2023-10-09T02:29:19;17.37;;;5.57;;
5682;SDS011;2864;49.220;8.654;2023-10-09T02:31:48;14.27;;;5.57;;
5682;SDS011;2864;49.220;8.654;2023-10-09T02:34:18;17.40;;;5.47;;
5682;SDS011;2864;49.220;8.654;2023-10-09T02:36:51;17.37;;;5.87;;
5682;SDS011;2864;49.220;8.654;2023-10-09T02:39:25;16.10;;;5.23;;
5682;SDS011;2864;49.220;8.654;2023-10-09T02:41:57;17.20;;;5.53;;
5682;SDS011;2864;49.220;8.654;2023-10-09T02:44:46;17.17;;;5.83;;
5682;SDS011;2864;49.220;8.654;2023-10-09T02:47:14;16.93;;;5.77;;
5682;SDS011;2864;49.220;8.654;2023-10-09T02:49:46;22.40;;;6.03;;
5682;SDS011;2864;49.220;8.654;2023-10-09T02:52:15;15.30;;;5.17;;
5682;SDS011;2864;49.220;8.654;2023-10-09T02:54:44;17.77;;;5.93;;
5682;SDS011;2864;49.220;8.654;2023-10-09T02:57:12;15.50;;;5.43;;
5682;SDS011;2864;49.220;8.654;2023-10-09T02:59:47;17.83;;;6.00;;
5682;SDS011;2864;49.220;8.654;2023-10-09T03:02:12;18.37;;;5.23;;
5682;SDS011;2864;49.220;8.654;2023-10-09T03:04:38;23.00;;;6.10;;
5682;SDS011;2864;49.220;8.654;2023-10-09T03:07:06;21.30;;;5.70;;
5682;SDS011;2864;49.220;8.654;2023-10-09T03:09:32;14.80;;;5.33;;
5682;SDS011;2864;49.220;8.654;2023-10-09T03:12:00;18.50;;;6.53;;
5682;SDS011;2864;49.220;8.654;2023-10-09T03:14:27;21.60;;;5.70;;
5682;SDS011;2864;49.220;8.654;2023-10-09T03:16:54;19.63;;;6.00;;
5682;SDS011;2864;49.220;8.654;2023-10-09T03:19:26;17.57;;;5.27;;
5682;SDS011;2864;49.220;8.654;2023-10-09T03:21:53;20.87;;;5.47;;
5682;SDS011;2864;49.220;8.654;2023-10-09T03:24:22;23.47;;;6.17;;
5682;SDS011;2864;49.220;8.654;2023-10-09T03:26:48;21.90;;;5.50;;
5682;SDS011;2864;49.220;8.654;2023-10-09T03:29:14;18.40;;;5.57;;
5682;SDS011;2864;49.220;8.654;2023-10-09T03:31:44;15.53;;;5.30;;
5682;SDS011;2864;49.220;8.654;2023-10-09T03:34:11;23.30;;;5.67;;
5682;SDS011;2864;49.220;8.654;2023-10-09T03:36:37;20.53;;;5.93;;
5682;SDS011;2864;49.220;8.654;2023-10-09T03:39:04;19.93;;;5.20;;
5682;SDS011;2864;49.220;8.654;2023-10-09T03:41:45;18.10;;;5.47;;
5682;SDS011;2864;49.220;8.654;2023-10-09T03:44:13;19.93;;;5.70;;
5682;SDS011;2864;49.220;8.654;2023-10-09T03:46:39;17.40;;;5.77;;
5682;SDS011;2864;49.220;8.654;2023-10-09T03:49:09;26.57;;;5.63;;
5682;SDS011;2864;49.220;8.654;2023-10-09T03:51:40;20.33;;;5.87;;
5682;SDS011;2864;49.220;8.654;2023-10-09T03:54:07;21.23;;;5.97;;
5682;SDS011;2864;49.220;8.654;2023-10-09T03:56:34;21.03;;;6.33;;
5682;SDS011;2864;49.220;8.654;2023-10-09T03:59:00;14.03;;;6.17;;
5682;SDS011;2864;49.220;8.654;2023-10-09T04:01:30;19.13;;;5.13;;
5682;SDS011;2864;49.220;8.654;2023-10-09T04:04:05;19.17;;;6.43;;
5682;SDS011;2864;49.220;8.654;2023-10-09T04:06:33;22.70;;;5.50;;
5682;SDS011;2864;49.220;8.654;2023-10-09T04:08:59;19.80;;;6.00;;
5682;SDS011;2864;49.220;8.654;2023-10-09T04:11:38;18.10;;;5.60;;
5682;SDS011;2864;49.220;8.654;2023-10-09T04:14:08;16.63;;;5.13;;
5682;SDS011;2864;49.220;8.654;2023-10-09T04:16:46;19.80;;;5.73;;
5682;SDS011;2864;49.220;8.654;2023-10-09T04:19:30;12.57;;;5.70;;
5682;SDS011;2864;49.220;8.654;2023-10-09T04:22:04;25.70;;;6.27;;
5682;SDS011;2864;49.220;8.654;2023-10-09T04:24:33;19.63;;;5.67;;
5682;SDS011;2864;49.220;8.654;2023-10-09T04:27:06;13.17;;;4.93;;
5682;SDS011;2864;49.220;8.654;2023-10-09T04:29:33;17.20;;;6.17;;
5682;SDS011;2864;49.220;8.654;2023-10-09T04:32:12;12.87;;;5.37;;
5682;SDS011;2864;49.220;8.654;2023-10-09T04:34:41;18.47;;;5.63;;
5682;SDS011;2864;49.220;8.654;2023-10-09T04:37:14;16.40;;;5.80;;
5682;SDS011;2864;49.220;8.654;2023-10-09T04:39:40;17.37;;;5.10;;
5682;SDS011;2864;49.220;8.654;2023-10-09T04:42:35;16.63;;;5.83;;
5682;SDS011;2864;49.220;8.654;2023-10-09T04:45:02;22.27;;;5.83;;
5682;SDS011;2864;49.220;8.654;2023-10-09T04:47:31;21.73;;;5.70;;
5682;SDS011;2864;49.220;8.654;2023-10-09T04:50:01;18.87;;;5.87;;
5682;SDS011;2864;49.220;8.654;2023-10-09T04:52:33;19.63;;;6.07;;
5682;SDS011;2864;49.220;8.654;2023-10-09T04:54:59;21.83;;;5.87;;
5682;SDS011;2864;49.220;8.654;2023-10-09T04:57:32;18.50;;;5.60;;
5682;SDS011;2864;49.220;8.654;2023-10-09T05:00:06;17.87;;;4.93;;
5682;SDS011;2864;49.220;8.654;2023-10-09T05:02:47;21.03;;;6.00;;
5682;SDS011;2864;49.220;8.654;2023-10-09T05:05:19;18.63;;;5.53;;
5682;SDS011;2864;49.220;8.654;2023-10-09T05:11:03;21.77;;;6.10;;
5682;SDS011;2864;49.220;8.654;2023-10-09T05:13:32;22.20;;;5.30;;
5682;SDS011;2864;49.220;8.654;2023-10-09T05:16:09;15.47;;;5.60;;
5682;SDS011;2864;49.220;8.654;2023-10-09T05:18:54;20.87;;;5.97;;
5682;SDS011;2864;49.220;8.654;2023-10-09T05:21:25;20.87;;;5.87;;
5682;SDS011;2864;49.220;8.654;2023-10-09T05:23:57;22.20;;;6.20;;
5682;SDS011;2864;49.220;8.654;2023-10-09T05:26:38;19.10;;;6.10;;
5682;SDS011;2864;49.220;8.654;2023-10-09T05:29:14;19.93;;;5.80;;
5682;SDS011;2864;49.220;8.654;2023-10-09T05:31:58;17.83;;;6.17;;
5682;SDS011;2864;49.220;8.654;2023-10-09T05:34:25;14.23;;;5.20;;
5682;SDS011;2864;49.220;8.654;2023-10-09T05:37:20;18.00;;;6.00;;
5682;SDS011;2864;49.220;8.654;2023-10-09T05:39:57;24.23;;;6.30;;
5682;SDS011;2864;49.220;8.654;2023-10-09T05:42:24;20.43;;;6.40;;
5682;SDS011;2864;49.220;8.654;2023-10-09T05:45:11;24.13;;;6.13;;
5682;SDS011;2864;49.220;8.654;2023-10-09T05:47:48;17.67;;;5.37;;
5682;SDS011;2864;49.220;8.654;2023-10-09T05:50:23;24.63;;;6.27;;
5682;SDS011;2864;49.220;8.654;2023-10-09T05:52:52;17.67;;;6.00;;
5682;SDS011;2864;49.220;8.654;2023-10-09T05:55:19;23.67;;;5.93;;
5682;SDS011;2864;49.220;8.654;2023-10-09T05:58:14;19.27;;;6.23;;
5682;SDS011;2864;49.220;8.654;2023-10-09T06:00:58;25.97;;;6.10;;
5682;SDS011;2864;49.220;8.654;2023-10-09T06:03:56;17.77;;;6.00;;
5682;SDS011;2864;49.220;8.654;2023-10-09T06:06:40;18.53;;;5.10;;
5682;SDS011;2864;49.220;8.654;2023-10-09T06:09:21;16.87;;;6.03;;
5682;SDS011;2864;49.220;8.654;2023-10-09T06:11:47;17.97;;;5.10;;
5682;SDS011;2864;49.220;8.654;2023-10-09T06:14:18;23.50;;;6.40;;
5682;SDS011;2864;49.220;8.654;2023-10-09T06:17:10;22.30;;;5.40;;
5682;SDS011;2864;49.220;8.654;2023-10-09T06:19:36;16.40;;;5.13;;
5682;SDS011;2864;49.220;8.654;2023-10-09T06:22:08;15.13;;;5.20;;
5682;SDS011;2864;49.220;8.654;2023-10-09T06:24:37;17.53;;;5.73;;
5682;SDS011;2864;49.220;8.654;2023-10-09T06:27:07;17.37;;;6.10;;
5682;SDS011;2864;49.220;8.654;2023-10-09T06:29:32;16.03;;;6.20;;
5682;SDS011;2864;49.220;8.654;2023-10-09T06:32:06;14.97;;;5.73;;
5682;SDS011;2864;49.220;8.654;2023-10-09T06:34:59;17.93;;;5.47;;
5682;SDS011;2864;49.220;8.654;2023-10-09T06:37:45;16.80;;;6.03;;
5682;SDS011;2864;49.220;8.654;2023-10-09T06:40:27;15.77;;;5.83;;
5682;SDS011;2864;49.220;8.654;2023-10-09T06:43:15;20.77;;;5.63;;
5682;SDS011;2864;49.220;8.654;2023-10-09T06:45:46;12.73;;;4.77;;
5682;SDS011;2864;49.220;8.654;2023-10-09T06:48:20;18.73;;;5.40;;
5682;SDS011;2864;49.220;8.654;2023-10-09T06:51:05;18.43;;;5.60;;
5682;SDS011;2864;49.220;8.654;2023-10-09T06:53:34;18.00;;;5.00;;
5682;SDS011;2864;49.220;8.654;2023-10-09T06:56:28;20.87;;;5.73;;
5682;SDS011;2864;49.220;8.654;2023-10-09T06:58:55;27.03;;;6.27;;
5682;SDS011;2864;49.220;8.654;2023-10-09T07:01:25;15.03;;;5.47;;
5682;SDS011;2864;49.220;8.654;2023-10-09T07:04:04;16.30;;;5.27;;
5682;SDS011;2864;49.220;8.654;2023-10-09T07:06:49;17.67;;;5.83;;
5682;SDS011;2864;49.220;8.654;2023-10-09T07:09:16;16.47;;;5.60;;
5682;SDS011;2864;49.220;8.654;2023-10-09T07:11:47;16.27;;;5.50;;
5682;SDS011;2864;49.220;8.654;2023-10-09T07:19:41;14.87;;;5.63;;
5682;SDS011;2864;49.220;8.654;2023-10-09T07:22:07;16.70;;;5.10;;
5682;SDS011;2864;49.220;8.654;2023-10-09T07:24:49;18.47;;;5.73;;
5682;SDS011;2864;49.220;8.654;2023-10-09T07:27:26;15.23;;;5.10;;
5682;SDS011;2864;49.220;8.654;2023-10-09T07:30:14;14.70;;;5.53;;
5682;SDS011;2864;49.220;8.654;2023-10-09T07:33:03;14.67;;;5.40;;
5682;SDS011;2864;49.220;8.654;2023-10-09T07:35:31;18.03;;;5.47;;
5682;SDS011;2864;49.220;8.654;2023-10-09T07:38:09;21.57;;;6.00;;
5682;SDS011;2864;49.220;8.654;2023-10-09T07:40:50;15.33;;;5.27;;
5682;SDS011;2864;49.220;8.654;2023-10-09T07:43:45;19.23;;;5.13;;
5682;SDS011;2864;49.220;8.654;2023-10-09T07:46:12;15.63;;;5.07;;
5682;SDS011;2864;49.220;8.654;2023-10-09T07:48:58;15.00;;;4.97;;
5682;SDS011;2864;49.220;8.654;2023-10-09T07:51:37;14.27;;;5.10;;
5682;SDS011;2864;49.220;8.654;2023-10-09T07:54:03;14.47;;;4.87;;
5682;SDS011;2864;49.220;8.654;2023-10-09T07:56:32;19.47;;;5.77;;
5682;SDS011;2864;49.220;8.654;2023-10-09T07:59:04;19.17;;;5.33;;
5682;SDS011;2864;49.220;8.654;2023-10-09T08:01:35;18.57;;;5.60;;
5682;SDS011;2864;49.220;8.654;2023-10-09T08:04:01;13.50;;;5.10;;
5682;SDS011;2864;49.220;8.654;2023-10-09T08:06:30;21.90;;;4.93;;
5682;SDS011;2864;49.220;8.654;2023-10-09T08:09:09;18.13;;;5.33;;
5682;SDS011;2864;49.220;8.654;2023-10-09T08:27:10;13.97;;;4.90;;
5682;SDS011;2864;49.220;8.654;2023-10-09T08:29:55;17.17;;;5.13;;
5682;SDS011;2864;49.220;8.654;2023-10-09T08:32:40;19.60;;;4.67;;
5682;SDS011;2864;49.220;8.654;2023-10-09T08:35:08;14.77;;;4.97;;
5682;SDS011;2864;49.220;8.654;2023-10-09T08:37:55;15.70;;;4.70;;
5682;SDS011;2864;49.220;8.654;2023-10-09T08:40:37;17.27;;;5.10;;
5682;SDS011;2864;49.220;8.654;2023-10-09T08:43:14;20.13;;;5.17;;
5682;SDS011;2864;49.220;8.654;2023-10-09T08:45:44;20.90;;;4.93;;
5682;SDS011;2864;49.220;8.654;2023-10-09T08:48:25;21.90;;;5.20;;
5682;SDS011;2864;49.220;8.654;2023-10-09T08:50:52;18.77;;;5.10;;
5682;SDS011;2864;49.220;8.654;2023-10-09T08:53:24;13.17;;;4.80;;
5682;SDS011;2864;49.220;8.654;2023-10-09T08:55:52;21.60;;;4.90;;
5682;SDS011;2864;49.220;8.654;2023-10-09T08:58:18;15.30;;;4.70;;
5682;SDS011;2864;49.220;8.654;2023-10-09T09:00:53;19.07;;;4.43;;
5682;SDS011;2864;49.220;8.654;2023-10-09T09:03:20;17.67;;;5.50;;
5682;SDS011;2864;49.220;8.654;2023-10-09T09:05:57;13.77;;;4.20;;
5682;SDS011;2864;49.220;8.654;2023-10-09T09:08:28;21.73;;;5.00;;
5682;SDS011;2864;49.220;8.654;2023-10-09T09:10:58;18.37;;;4.70;;
5682;SDS011;2864;49.220;8.654;2023-10-09T09:13:38;17.30;;;4.53;;
5682;SDS011;2864;49.220;8.654;2023-10-09T09:16:12;19.30;;;4.80;;
5682;SDS011;2864;49.220;8.654;2023-10-09T09:21:35;15.37;;;4.63;;
5682;SDS011;2864;49.220;8.654;2023-10-09T09:24:04;15.93;;;5.30;;
5682;SDS011;2864;49.220;8.654;2023-10-09T09:26:40;15.50;;;4.60;;
5682;SDS011;2864;49.220;8.654;2023-10-09T09:29:13;19.33;;;4.57;;
5682;SDS011;2864;49.220;8.654;2023-10-09T09:31:56;13.87;;;4.37;;
5682;SDS011;2864;49.220;8.654;2023-10-09T09:34:47;16.97;;;4.27;;
5682;SDS011;2864;49.220;8.654;2023-10-09T09:37:20;13.23;;;4.30;;
5682;SDS011;2864;49.220;8.654;2023-10-09T09:39:47;17.53;;;5.00;;
5682;SDS011;2864;49.220;8.654;2023-10-09T09:42:16;20.43;;;4.80;;
5682;SDS011;2864;49.220;8.654;2023-10-09T09:44:49;16.13;;;4.97;;
5682;SDS011;2864;49.220;8.654;2023-10-09T09:47:15;12.97;;;5.03;;
5682;SDS011;2864;49.220;8.654;2023-10-09T09:49:54;12.27;;;4.47;;
5682;SDS011;2864;49.220;8.654;2023-10-09T09:52:36;15.40;;;4.63;;
5682;SDS011;2864;49.220;8.654;2023-10-09T09:55:06;17.57;;;4.20;;
5682;SDS011;2864;49.220;8.654;2023-10-09T09:57:42;19.67;;;4.43;;
5682;SDS011;2864;49.220;8.654;2023-10-09T10:00:10;18.40;;;4.67;;
5682;SDS011;2864;49.220;8.654;2023-10-09T10:03:18;17.60;;;4.43;;
5682;SDS011;2864;49.220;8.654;2023-10-09T10:06:01;16.13;;;4.53;;
5682;SDS011;2864;49.220;8.654;2023-10-09T10:08:34;19.57;;;5.03;;
5682;SDS011;2864;49.220;8.654;2023-10-09T10:11:04;18.37;;;4.50;;
5682;SDS011;2864;49.220;8.654;2023-10-09T10:16:08;13.27;;;4.50;;
5682;SDS011;2864;49.220;8.654;2023-10-09T10:21:24;13.83;;;4.10;;
5682;SDS011;2864;49.220;8.654;2023-10-09T10:23:57;12.57;;;4.30;;
5682;SDS011;2864;49.220;8.654;2023-10-09T10:26:32;13.87;;;4.33;;
5682;SDS011;2864;49.220;8.654;2023-10-09T10:29:13;14.00;;;4.70;;
5682;SDS011;2864;49.220;8.654;2023-10-09T10:31:51;17.37;;;4.10;;
5682;SDS011;2864;49.220;8.654;2023-10-09T10:34:22;14.90;;;4.83;;
5682;SDS011;2864;49.220;8.654;2023-10-09T10:36:49;18.43;;;4.93;;
5682;SDS011;2864;49.220;8.654;2023-10-09T10:39:17;13.20;;;4.20;;
5682;SDS011;2864;49.220;8.654;2023-10-09T10:42:04;15.10;;;4.53;;
5682;SDS011;2864;49.220;8.654;2023-10-09T10:44:31;15.77;;;4.57;;
5682;SDS011;2864;49.220;8.654;2023-10-09T10:47:07;16.93;;;4.17;;
5682;SDS011;2864;49.220;8.654;2023-10-09T10:49:52;12.63;;;4.03;;
5682;SDS011;2864;49.220;8.654;2023-10-09T10:52:23;17.17;;;4.70;;
5682;SDS011;2864;49.220;8.654;2023-10-09T10:55:13;16.70;;;4.40;;
5682;SDS011;2864;49.220;8.654;2023-10-09T10:57:44;15.90;;;4.47;;
5682;SDS011;2864;49.220;8.654;2023-10-09T11:00:19;15.47;;;4.33;;
5682;SDS011;2864;49.220;8.654;2023-10-09T11:03:03;17.00;;;4.60;;
5682;SDS011;2864;49.220;8.654;2023-10-09T11:05:40;18.17;;;4.57;;
5682;SDS011;2864;49.220;8.654;2023-10-09T11:08:10;18.80;;;4.83;;
5682;SDS011;2864;49.220;8.654;2023-10-09T11:10:35;24.63;;;4.90;;
5682;SDS011;2864;49.220;8.654;2023-10-09T11:13:24;14.00;;;4.20;;
5682;SDS011;2864;49.220;8.654;2023-10-09T11:15:58;16.97;;;4.90;;
5682;SDS011;2864;49.220;8.654;2023-10-09T11:18:42;13.97;;;4.23;;
5682;SDS011;2864;49.220;8.654;2023-10-09T11:21:12;20.43;;;4.70;;
5682;SDS011;2864;49.220;8.654;2023-10-09T11:23:39;10.80;;;4.23;;
5682;SDS011;2864;49.220;8.654;2023-10-09T11:26:22;12.63;;;4.43;;
5682;SDS011;2864;49.220;8.654;2023-10-09T11:29:09;16.87;;;4.67;;
5682;SDS011;2864;49.220;8.654;2023-10-09T11:31:42;17.63;;;4.20;;
5682;SDS011;2864;49.220;8.654;2023-10-09T11:34:24;12.47;;;4.73;;
5682;SDS011;2864;49.220;8.654;2023-10-09T11:37:00;13.97;;;4.10;;
5682;SDS011;2864;49.220;8.654;2023-10-09T11:39:30;11.60;;;4.43;;
5682;SDS011;2864;49.220;8.654;2023-10-09T11:42:00;14.83;;;4.83;;
5682;SDS011;2864;49.220;8.654;2023-10-09T11:44:39;13.40;;;4.77;;
5682;SDS011;2864;49.220;8.654;2023-10-09T11:47:09;15.27;;;4.17;;
5682;SDS011;2864;49.220;8.654;2023-10-09T11:49:57;12.03;;;4.03;;
5682;SDS011;2864;49.220;8.654;2023-10-09T11:52:26;20.80;;;4.90;;
5682;SDS011;2864;49.220;8.654;2023-10-09T11:55:02;12.90;;;3.87;;
5682;SDS011;2864;49.220;8.654;2023-10-09T11:57:28;18.93;;;4.60;;
5682;SDS011;2864;49.220;8.654;2023-10-09T11:59:59;13.37;;;3.90;;
5682;SDS011;2864;49.220;8.654;2023-10-09T12:02:25;17.67;;;4.73;;
5682;SDS011;2864;49.220;8.654;2023-10-09T12:04:51;14.13;;;4.13;;
5682;SDS011;2864;49.220;8.654;2023-10-09T12:07:19;14.07;;;4.57;;
5682;SDS011;2864;49.220;8.654;2023-10-09T12:09:45;14.87;;;4.67;;
5682;SDS011;2864;49.220;8.654;2023-10-09T12:12:14;16.03;;;4.47;;
5682;SDS011;2864;49.220;8.654;2023-10-09T12:14:39;13.80;;;3.77;;
5682;SDS011;2864;49.220;8.654;2023-10-09T12:17:05;17.10;;;4.83;;
5682;SDS011;2864;49.220;8.654;2023-10-09T12:19:32;14.30;;;4.60;;
5682;SDS011;2864;49.220;8.654;2023-10-09T12:22:00;15.43;;;4.70;;
5682;SDS011;2864;49.220;8.654;2023-10-09T12:24:27;10.27;;;4.40;;
5682;SDS011;2864;49.220;8.654;2023-10-09T12:26:54;12.73;;;4.07;;
5682;SDS011;2864;49.220;8.654;2023-10-09T12:29:19;13.97;;;4.30;;
5682;SDS011;2864;49.220;8.654;2023-10-09T12:31:45;12.90;;;4.30;;
5682;SDS011;2864;49.220;8.654;2023-10-09T12:34:12;14.43;;;4.70;;
5682;SDS011;2864;49.220;8.654;2023-10-09T12:36:45;18.20;;;4.33;;
5682;SDS011;2864;49.220;8.654;2023-10-09T12:39:10;12.07;;;4.57;;
5682;SDS011;2864;49.220;8.654;2023-10-09T12:41:43;12.20;;;4.40;;
5682;SDS011;2864;49.220;8.654;2023-10-09T12:44:09;12.20;;;4.50;;
5682;SDS011;2864;49.220;8.654;2023-10-09T12:46:40;20.93;;;4.63;;
5682;SDS011;2864;49.220;8.654;2023-10-09T12:49:06;13.60;;;4.55;;
5682;SDS011;2864;49.220;8.654;2023-10-09T12:51:32;13.63;;;4.45;;
5682;SDS011;2864;49.220;8.654;2023-10-09T12:53:58;14.20;;;4.35;;
5682;SDS011;2864;49.220;8.654;2023-10-09T12:56:26;12.98;;;4.63;;
5682;SDS011;2864;49.220;8.654;2023-10-09T12:59:01;12.43;;;4.20;;
5682;SDS011;2864;49.220;8.654;2023-10-09T13:01:29;16.10;;;4.25;;
5682;SDS011;2864;49.220;8.654;2023-10-09T13:04:00;11.48;;;4.63;;
5682;SDS011;2864;49.220;8.654;2023-10-09T13:06:26;15.05;;;4.70;;
5682;SDS011;2864;49.220;8.654;2023-10-09T13:08:52;10.82;;;4.45;;
5682;SDS011;2864;49.220;8.654;2023-10-09T13:11:21;12.77;;;4.85;;
5682;SDS011;2864;49.220;8.654;2023-10-09T13:13:50;14.88;;;4.75;;
5682;SDS011;2864;49.220;8.654;2023-10-09T13:16:17;16.60;;;4.90;;
5682;SDS011;2864;49.220;8.654;2023-10-09T13:18:51;10.90;;;4.57;;
5682;SDS011;2864;49.220;8.654;2023-10-09T13:21:22;11.00;;;4.88;;
5682;SDS011;2864;49.220;8.654;2023-10-09T13:23:51;16.52;;;4.70;;
5682;SDS011;2864;49.220;8.654;2023-10-09T13:26:17;17.20;;;4.65;;
5682;SDS011;2864;49.220;8.654;2023-10-09T13:28:44;12.85;;;5.03;;
5682;SDS011;2864;49.220;8.654;2023-10-09T13:31:11;15.07;;;4.28;;
5682;SDS011;2864;49.220;8.654;2023-10-09T13:33:41;15.95;;;4.75;;
5682;SDS011;2864;49.220;8.654;2023-10-09T13:36:07;9.93;;;4.45;;
5682;SDS011;2864;49.220;8.654;2023-10-09T13:38:42;12.15;;;4.88;;
5682;SDS011;2864;49.220;8.654;2023-10-09T13:41:08;15.55;;;4.65;;
5682;SDS011;2864;49.220;8.654;2023-10-09T13:43:40;16.55;;;4.75;;
5682;SDS011;2864;49.220;8.654;2023-10-09T13:46:07;11.23;;;4.50;;
5682;SDS011;2864;49.220;8.654;2023-10-09T13:48:34;15.45;;;4.65;;
5682;SDS011;2864;49.220;8.654;2023-10-09T13:51:12;13.77;;;5.13;;
5682;SDS011;2864;49.220;8.654;2023-10-09T13:53:47;15.68;;;5.15;;
5682;SDS011;2864;49.220;8.654;2023-10-09T13:56:16;18.77;;;4.82;;
5682;SDS011;2864;49.220;8.654;2023-10-09T13:58:44;10.57;;;4.82;;
5682;SDS011;2864;49.220;8.654;2023-10-09T14:01:15;13.80;;;5.50;;
5682;SDS011;2864;49.220;8.654;2023-10-09T14:03:53;16.83;;;4.97;;
5682;SDS011;2864;49.220;8.654;2023-10-09T14:06:20;11.18;;;4.85;;
5682;SDS011;2864;49.220;8.654;2023-10-09T14:08:55;16.42;;;5.20;;
5682;SDS011;2864;49.220;8.654;2023-10-09T14:11:25;14.05;;;4.50;;
5682;SDS011;2864;49.220;8.654;2023-10-09T14:13:54;17.20;;;5.10;;
5682;SDS011;2864;49.220;8.654;2023-10-09T14:16:20;16.80;;;5.18;;
5682;SDS011;2864;49.220;8.654;2023-10-09T14:18:51;21.15;;;5.07;;
5682;SDS011;2864;49.220;8.654;2023-10-09T14:21:21;14.27;;;4.53;;
5682;SDS011;2864;49.220;8.654;2023-10-09T14:23:50;16.15;;;5.43;;
5682;SDS011;2864;49.220;8.654;2023-10-09T14:26:16;12.23;;;4.57;;
5682;SDS011;2864;49.220;8.654;2023-10-09T14:28:43;17.63;;;5.13;;
5682;SDS011;2864;49.220;8.654;2023-10-09T14:31:09;11.93;;;4.93;;
5682;SDS011;2864;49.220;8.654;2023-10-09T14:33:37;14.60;;;4.80;;
5682;SDS011;2864;49.220;8.654;2023-10-09T14:36:05;17.90;;;5.50;;
5682;SDS011;2864;49.220;8.654;2023-10-09T14:38:32;11.48;;;5.13;;
5682;SDS011;2864;49.220;8.654;2023-10-09T14:41:03;15.18;;;5.53;;
5682;SDS011;2864;49.220;8.654;2023-10-09T14:46:22;15.93;;;5.10;;
5682;SDS011;2864;49.220;8.654;2023-10-09T14:48:51;13.13;;;4.90;;
5682;SDS011;2864;49.220;8.654;2023-10-09T14:51:22;14.20;;;4.63;;
5682;SDS011;2864;49.220;8.654;2023-10-09T14:53:57;16.90;;;5.60;;
5682;SDS011;2864;49.220;8.654;2023-10-09T14:56:29;16.00;;;5.47;;
5682;SDS011;2864;49.220;8.654;2023-10-09T14:58:56;14.57;;;4.97;;
5682;SDS011;2864;49.220;8.654;2023-10-09T15:01:23;15.10;;;4.70;;
5682;SDS011;2864;49.220;8.654;2023-10-09T15:03:50;15.48;;;5.20;;
5682;SDS011;2864;49.220;8.654;2023-10-09T15:06:20;19.35;;;5.05;;
5682;SDS011;2864;49.220;8.654;2023-10-09T15:08:46;13.70;;;5.43;;
5682;SDS011;2864;49.220;8.654;2023-10-09T15:11:12;17.63;;;5.53;;
5682;SDS011;2864;49.220;8.654;2023-10-09T15:13:37;18.25;;;5.35;;
5682;SDS011;2864;49.220;8.654;2023-10-09T15:16:04;13.43;;;4.90;;
5682;SDS011;2864;49.220;8.654;2023-10-09T15:18:30;13.50;;;4.85;;
5682;SDS011;2864;49.220;8.654;2023-10-09T15:20:59;14.73;;;5.30;;
5682;SDS011;2864;49.220;8.654;2023-10-09T15:23:25;10.55;;;4.97;;
5682;SDS011;2864;49.220;8.654;2023-10-09T15:25:51;17.10;;;5.53;;
5682;SDS011;2864;49.220;8.654;2023-10-09T15:28:20;15.23;;;5.28;;
5682;SDS011;2864;49.220;8.654;2023-10-09T15:30:47;15.63;;;5.88;;
5682;SDS011;2864;49.220;8.654;2023-10-09T15:33:14;14.63;;;4.88;;
5682;SDS011;2864;49.220;8.654;2023-10-09T15:35:42;23.27;;;5.30;;
5682;SDS011;2864;49.220;8.654;2023-10-09T15:38:11;15.43;;;5.57;;
5682;SDS011;2864;49.220;8.654;2023-10-09T15:40:39;16.35;;;5.30;;
5682;SDS011;2864;49.220;8.654;2023-10-09T15:43:07;14.38;;;4.97;;
5682;SDS011;2864;49.220;8.654;2023-10-09T15:45:40;17.48;;;5.60;;
5682;SDS011;2864;49.220;8.654;2023-10-09T15:48:07;17.65;;;5.85;;
5682;SDS011;2864;49.220;8.654;2023-10-09T15:50:32;18.27;;;5.28;;
5682;SDS011;2864;49.220;8.654;2023-10-09T15:52:59;16.67;;;5.05;;
5682;SDS011;2864;49.220;8.654;2023-10-09T15:55:27;20.58;;;5.43;;
5682;SDS011;2864;49.220;8.654;2023-10-09T15:57:52;18.98;;;5.60;;
5682;SDS011;2864;49.220;8.654;2023-10-09T16:00:22;14.38;;;5.38;;
5682;SDS011;2864;49.220;8.654;2023-10-09T16:02:53;16.08;;;6.20;;
5682;SDS011;2864;49.220;8.654;2023-10-09T16:05:19;17.70;;;6.35;;
5682;SDS011;2864;49.220;8.654;2023-10-09T16:07:50;15.13;;;5.90;;